createdAt,value
2023-03-29T00:02:11.336Z,5.80
2023-03-29T00:04:41.408Z,3.90
2023-03-29T00:07:11.457Z,3.40
2023-03-29T00:09:39.511Z,3.30
2023-03-29T00:12:09.388Z,2.50
2023-03-29T00:14:37.447Z,5.50
2023-03-29T00:17:06.538Z,3.50
2023-03-29T00:19:36.756Z,3.20
2023-03-29T00:22:08.361Z,3.30
2023-03-29T00:24:36.747Z,2.90
2023-03-29T00:27:04.917Z,3.70
2023-03-29T00:29:33.037Z,3.20
2023-03-29T00:32:01.055Z,2.90
2023-03-29T00:34:30.952Z,3.00
2023-03-29T00:36:58.969Z,3.00
2023-03-29T00:39:28.109Z,3.10
2023-03-29T00:41:57.061Z,3.60
2023-03-29T00:44:43.796Z,3.20
2023-03-29T00:47:11.769Z,2.70
2023-03-29T00:49:39.992Z,3.00
2023-03-29T00:52:08.228Z,3.00
2023-03-29T00:54:38.629Z,4.30
2023-03-29T00:57:06.990Z,3.40
2023-03-29T00:59:44.753Z,3.40
2023-03-29T01:02:14.201Z,4.40
2023-03-29T01:04:42.956Z,3.90
2023-03-29T01:07:14.195Z,3.60
2023-03-29T01:09:51.027Z,3.80
2023-03-29T01:12:20.943Z,4.10
2023-03-29T01:14:50.687Z,3.90
2023-03-29T01:17:22.042Z,3.90
2023-03-29T01:19:51.908Z,3.40
2023-03-29T01:22:32.243Z,4.50
2023-03-29T01:25:06.396Z,2.90
2023-03-29T01:27:48.705Z,4.00
2023-03-29T01:30:43.785Z,3.10
2023-03-29T01:33:15.052Z,6.10
2023-03-29T01:35:43.846Z,4.40
2023-03-29T01:38:16.294Z,6.10
2023-03-29T01:40:44.319Z,4.40
2023-03-29T01:43:31.220Z,5.10
2023-03-29T01:45:59.226Z,5.90
2023-03-29T01:48:36.989Z,5.30
2023-03-29T01:51:05.353Z,4.10
2023-03-29T01:53:36.221Z,4.00
2023-03-29T01:56:10.064Z,3.20
2023-03-29T01:58:39.910Z,3.00
2023-03-29T02:01:14.105Z,2.60
2023-03-29T02:03:42.972Z,2.80
2023-03-29T02:06:11.584Z,2.90
2023-03-29T02:08:40.804Z,2.40
2023-03-29T02:11:08.907Z,2.70
2023-03-29T02:13:42.114Z,3.50
2023-03-29T02:16:12.304Z,4.00
2023-03-29T02:18:44.255Z,5.20
2023-03-29T02:21:25.007Z,4.70
2023-03-29T02:23:54.769Z,5.40
2023-03-29T02:26:24.022Z,7.50
2023-03-29T02:28:53.426Z,5.40
2023-03-29T02:31:25.300Z,6.80
2023-03-29T02:33:59.591Z,4.70
2023-03-29T02:36:32.245Z,3.50
2023-03-29T02:39:00.737Z,4.50
2023-03-29T02:41:29.599Z,6.30
2023-03-29T02:43:57.699Z,7.60
2023-03-29T02:46:25.748Z,4.00
2023-03-29T02:48:54.171Z,11.30
2023-03-29T02:51:28.800Z,12.30
2023-03-29T02:54:05.897Z,5.20
2023-03-29T02:56:46.521Z,5.30
2023-03-29T02:59:14.866Z,9.20
2023-03-29T03:01:42.877Z,5.50
2023-03-29T03:04:12.350Z,10.40
2023-03-29T03:06:41.441Z,11.40
2023-03-29T03:09:11.129Z,6.60
2023-03-29T03:11:41.080Z,3.80
2023-03-29T03:14:09.420Z,7.30
2023-03-29T03:16:37.482Z,4.80
2023-03-29T03:19:06.960Z,4.20
2023-03-29T03:21:37.766Z,3.40
2023-03-29T03:24:06.473Z,4.90
2023-03-29T03:26:35.985Z,7.30
2023-03-29T03:29:05.172Z,3.50
2023-03-29T03:31:57.031Z,3.80
2023-03-29T03:34:51.775Z,3.00
2023-03-29T03:37:23.691Z,2.90
2023-03-29T03:39:52.053Z,3.90
2023-03-29T03:42:20.330Z,3.30
2023-03-29T03:44:48.513Z,3.10
2023-03-29T03:47:46.187Z,3.40
2023-03-29T03:50:24.890Z,3.10
2023-03-29T03:52:52.969Z,2.80
2023-03-29T03:55:25.334Z,3.10
2023-03-29T03:58:05.625Z,3.40
2023-03-29T04:00:35.295Z,2.60
2023-03-29T04:03:24.398Z,3.00
2023-03-29T04:05:52.932Z,2.90
2023-03-29T04:08:22.598Z,3.30
2023-03-29T04:11:09.391Z,3.00
2023-03-29T04:13:42.497Z,3.60
2023-03-29T04:16:27.547Z,3.00
2023-03-29T04:18:56.911Z,6.40
2023-03-29T04:21:25.329Z,4.20
2023-03-29T04:23:55.338Z,3.20
2023-03-29T04:26:23.755Z,3.60
2023-03-29T04:29:04.759Z,3.00
2023-03-29T04:31:42.027Z,3.60
2023-03-29T04:34:25.690Z,4.60
2023-03-29T04:36:54.313Z,3.50
2023-03-29T04:39:32.157Z,3.40
2023-03-29T04:42:06.091Z,4.10
2023-03-29T04:44:36.031Z,3.40
2023-03-29T04:47:05.509Z,3.50
2023-03-29T04:49:35.734Z,3.30
2023-03-29T04:52:03.970Z,3.70
2023-03-29T04:54:38.444Z,2.90
2023-03-29T04:57:19.976Z,4.00
2023-03-29T05:00:02.268Z,3.60
2023-03-29T05:03:07.616Z,3.10
2023-03-29T05:05:38.573Z,4.30
2023-03-29T05:08:12.708Z,3.30
2023-03-29T05:10:59.209Z,2.90
2023-03-29T05:13:28.158Z,5.20
2023-03-29T05:15:57.664Z,4.00
2023-03-29T05:18:25.913Z,4.30
2023-03-29T05:20:54.613Z,3.50
2023-03-29T05:23:23.796Z,3.70
2023-03-29T05:26:09.952Z,3.50
2023-03-29T05:28:39.601Z,3.40
2023-03-29T05:31:08.012Z,5.00
2023-03-29T05:33:38.096Z,4.30
2023-03-29T05:36:08.335Z,4.00
2023-03-29T05:38:40.283Z,3.20
2023-03-29T05:41:10.843Z,4.80
2023-03-29T05:43:57.976Z,5.20
2023-03-29T05:46:29.913Z,3.20
2023-03-29T05:48:59.129Z,4.60
2023-03-29T05:51:38.283Z,4.10
2023-03-29T05:54:06.427Z,4.10
2023-03-29T05:56:35.534Z,4.40
2023-03-29T05:59:05.295Z,3.90
2023-03-29T06:01:34.079Z,3.90
2023-03-29T06:04:06.563Z,3.30
2023-03-29T06:06:43.112Z,4.00
2023-03-29T06:09:11.134Z,4.10
2023-03-29T06:11:52.326Z,3.20
2023-03-29T06:14:43.028Z,3.10
2023-03-29T06:17:19.208Z,4.90
2023-03-29T06:19:48.084Z,3.60
2023-03-29T06:22:16.839Z,4.10
2023-03-29T06:24:46.354Z,3.50
2023-03-29T06:27:23.581Z,3.70
2023-03-29T06:30:17.247Z,2.90
2023-03-29T06:33:02.377Z,4.30
2023-03-29T06:35:53.434Z,3.90
2023-03-29T06:38:30.973Z,3.40
2023-03-29T06:41:13.099Z,3.70
2023-03-29T06:44:04.145Z,3.20
2023-03-29T06:46:35.849Z,3.80
2023-03-29T06:49:07.104Z,3.90
2023-03-29T06:51:42.665Z,3.60
2023-03-29T06:54:11.720Z,3.50
2023-03-29T06:56:48.766Z,3.90
2023-03-29T06:59:18.383Z,3.30
2023-03-29T07:02:12.829Z,4.00
2023-03-29T07:04:56.311Z,4.10
2023-03-29T07:07:53.574Z,3.80
2023-03-29T07:10:45.783Z,3.90
2023-03-29T07:13:34.897Z,4.20
2023-03-29T07:16:05.653Z,3.20
2023-03-29T07:19:01.460Z,3.90
2023-03-29T07:21:58.845Z,3.70
2023-03-29T07:24:35.617Z,4.20
2023-03-29T07:27:04.703Z,4.20
2023-03-29T07:29:33.735Z,4.10
2023-03-29T07:32:01.810Z,4.90
2023-03-29T07:34:44.737Z,4.00
2023-03-29T07:37:37.514Z,3.20
2023-03-29T07:40:16.225Z,3.30
2023-03-29T07:43:09.436Z,3.40
2023-03-29T07:45:37.921Z,4.40
2023-03-29T07:48:10.094Z,5.30
2023-03-29T07:51:01.619Z,3.80
2023-03-29T07:53:37.142Z,5.20
2023-03-29T07:56:06.481Z,4.30
2023-03-29T07:58:48.874Z,4.40
2023-03-29T08:01:20.934Z,6.10
2023-03-29T08:04:12.844Z,4.90
2023-03-29T08:07:01.578Z,3.80
2023-03-29T08:09:43.508Z,3.70
2023-03-29T08:12:11.994Z,3.90
2023-03-29T08:14:41.007Z,4.50
2023-03-29T08:17:18.744Z,3.70
2023-03-29T08:19:51.969Z,3.80
2023-03-29T08:22:25.095Z,4.50
2023-03-29T08:25:12.235Z,4.30
2023-03-29T08:27:44.910Z,3.80
2023-03-29T08:30:18.162Z,4.30
2023-03-29T08:32:50.869Z,4.70
2023-03-29T08:35:20.439Z,4.40
2023-03-29T08:38:01.247Z,4.70
2023-03-29T08:40:56.281Z,5.40
2023-03-29T08:43:35.228Z,5.20
2023-03-29T08:46:35.260Z,5.80
2023-03-29T08:49:39.785Z,5.30
2023-03-29T08:52:14.373Z,5.30
2023-03-29T08:54:45.796Z,5.10
2023-03-29T08:57:28.240Z,4.10
2023-03-29T09:00:00.640Z,4.20
2023-03-29T09:02:31.202Z,4.10
2023-03-29T09:05:20.551Z,3.80
2023-03-29T09:07:58.189Z,4.20
2023-03-29T09:10:31.087Z,4.00
2023-03-29T09:13:08.164Z,4.10
2023-03-29T09:15:44.489Z,4.90
2023-03-29T09:18:34.519Z,4.40
2023-03-29T09:21:08.397Z,5.30
2023-03-29T09:23:42.716Z,5.30
2023-03-29T09:26:24.713Z,4.10
2023-03-29T09:29:38.158Z,6.30
2023-03-29T09:32:11.859Z,4.90
2023-03-29T09:34:43.685Z,4.70
2023-03-29T09:37:22.908Z,7.10
2023-03-29T09:39:53.149Z,5.00
2023-03-29T09:42:21.860Z,5.50
2023-03-29T09:44:52.684Z,4.60
2023-03-29T09:47:26.106Z,4.60
2023-03-29T09:49:57.129Z,4.50
2023-03-29T09:52:25.155Z,4.00
2023-03-29T09:55:15.532Z,4.90
2023-03-29T09:57:56.147Z,3.70
2023-03-29T10:00:25.737Z,3.90
2023-03-29T10:02:57.204Z,4.10
2023-03-29T10:05:32.716Z,4.00
2023-03-29T10:08:03.364Z,4.00
2023-03-29T10:10:32.398Z,4.80
2023-03-29T10:13:01.296Z,3.50
2023-03-29T10:15:32.090Z,4.00
2023-03-29T10:18:01.157Z,4.40
2023-03-29T10:20:29.405Z,4.30
2023-03-29T10:22:59.015Z,4.00
2023-03-29T10:25:28.979Z,4.30
2023-03-29T10:28:22.787Z,4.40
2023-03-29T10:31:17.851Z,3.90
2023-03-29T10:37:08.458Z,3.90
2023-03-29T10:40:46.561Z,4.50
2023-03-29T10:43:40.806Z,4.00
2023-03-29T10:46:30.955Z,3.50
2023-03-29T10:49:06.027Z,4.40
2023-03-29T10:51:53.084Z,4.60
2023-03-29T10:54:24.208Z,4.20
2023-03-29T10:57:31.671Z,4.10
2023-03-29T11:00:29.736Z,4.10
2023-03-29T11:03:21.633Z,3.90
2023-03-29T11:06:22.749Z,5.70
2023-03-29T11:09:00.588Z,5.50
2023-03-29T11:15:51.441Z,6.10
2023-03-29T11:18:22.327Z,6.60
2023-03-29T11:21:10.663Z,5.00
2023-03-29T11:23:42.162Z,5.50
2023-03-29T11:26:13.225Z,3.80
2023-03-29T11:28:43.947Z,4.40
2023-03-29T11:31:14.823Z,3.80
2023-03-29T11:34:01.924Z,5.20
2023-03-29T11:36:30.441Z,5.30
2023-03-29T11:39:01.505Z,5.10
2023-03-29T11:41:32.934Z,4.30
2023-03-29T11:46:53.213Z,3.90
2023-03-29T11:51:59.653Z,4.40
2023-03-29T11:54:28.950Z,10.00
2023-03-29T11:57:08.444Z,12.10
2023-03-29T11:59:38.080Z,4.60
2023-03-29T12:02:27.512Z,4.00
2023-03-29T12:04:57.012Z,4.70
2023-03-29T12:07:37.967Z,4.90
2023-03-29T12:10:21.107Z,4.40
2023-03-29T12:13:10.717Z,7.80
2023-03-29T12:15:41.485Z,11.10
2023-03-29T12:18:32.874Z,8.80
2023-03-29T12:21:02.072Z,8.30
2023-03-29T12:23:32.893Z,4.30
2023-03-29T12:26:24.694Z,10.30
2023-03-29T12:28:53.924Z,6.80
2023-03-29T12:31:40.517Z,6.20
2023-03-29T12:34:11.759Z,7.80
2023-03-29T12:37:23.731Z,5.00
2023-03-29T12:40:15.669Z,4.50
2023-03-29T12:43:16.878Z,4.50
2023-03-29T12:46:06.710Z,4.00
2023-03-29T12:48:41.739Z,4.20
2023-03-29T12:51:28.436Z,4.20
2023-03-29T12:54:02.150Z,4.30
2023-03-29T12:56:41.481Z,5.00
2023-03-29T12:59:18.244Z,4.50
2023-03-29T13:02:02.196Z,5.30
2023-03-29T13:04:55.576Z,3.90
2023-03-29T13:10:02.384Z,3.90
2023-03-29T13:12:40.266Z,3.80
2023-03-29T13:15:16.805Z,3.70
2023-03-29T13:18:14.563Z,3.70
2023-03-29T13:20:53.005Z,3.10
2023-03-29T13:23:30.697Z,3.20
2023-03-29T13:26:21.320Z,4.20
2023-03-29T13:29:06.511Z,3.40
2023-03-29T13:31:57.885Z,3.50
2023-03-29T13:34:38.435Z,3.70
2023-03-29T13:37:09.281Z,3.70
2023-03-29T13:39:37.500Z,3.40
2023-03-29T13:42:19.808Z,3.40
2023-03-29T13:44:49.272Z,3.40
2023-03-29T13:47:28.786Z,3.80
2023-03-29T13:50:03.746Z,4.70
2023-03-29T13:52:36.743Z,3.90
2023-03-29T13:55:20.171Z,4.00
2023-03-29T13:58:15.005Z,3.70
2023-03-29T14:00:47.344Z,3.60
2023-03-29T14:03:18.401Z,4.10
2023-03-29T14:05:49.133Z,4.60
2023-03-29T14:08:29.477Z,4.00
2023-03-29T14:11:00.769Z,5.20
2023-03-29T14:13:28.879Z,5.60
2023-03-29T14:16:04.706Z,5.70
2023-03-29T14:18:37.788Z,6.70
2023-03-29T14:21:06.000Z,4.30
2023-03-29T14:23:35.334Z,5.10
2023-03-29T14:26:10.717Z,5.00
2023-03-29T14:28:46.072Z,7.10
2023-03-29T14:31:17.546Z,7.90
2023-03-29T14:33:47.652Z,9.00
2023-03-29T14:36:17.115Z,8.50
2023-03-29T14:38:47.923Z,7.60
2023-03-29T14:41:16.116Z,9.50
2023-03-29T14:43:44.593Z,9.10
2023-03-29T14:46:13.233Z,6.00
2023-03-29T14:48:42.393Z,5.00
2023-03-29T14:51:10.713Z,4.50
2023-03-29T14:53:42.608Z,5.20
2023-03-29T14:56:11.861Z,5.10
2023-03-29T14:58:40.280Z,5.20
2023-03-29T15:01:14.681Z,4.60
2023-03-29T15:03:44.047Z,4.60
2023-03-29T15:06:12.297Z,5.80
2023-03-29T15:08:44.059Z,5.20
2023-03-29T15:11:23.380Z,4.50
2023-03-29T15:13:52.468Z,5.10
2023-03-29T15:16:22.140Z,3.40
2023-03-29T15:18:51.731Z,3.50
2023-03-29T15:21:21.074Z,5.20
2023-03-29T15:23:57.227Z,6.00
2023-03-29T15:26:26.937Z,4.90
2023-03-29T15:29:03.408Z,4.50
2023-03-29T15:31:36.016Z,4.80
2023-03-29T15:34:09.507Z,4.90
2023-03-29T15:36:45.273Z,4.50
2023-03-29T15:39:13.824Z,4.80
2023-03-29T15:41:42.381Z,5.80
2023-03-29T15:44:10.633Z,5.50
2023-03-29T15:46:38.636Z,6.50
2023-03-29T15:49:31.717Z,5.50
2023-03-29T15:52:19.556Z,6.10
2023-03-29T15:54:47.583Z,5.10
2023-03-29T15:57:16.213Z,5.20
2023-03-29T15:59:44.432Z,5.20
2023-03-29T16:02:12.989Z,4.60
2023-03-29T16:04:41.194Z,4.70
2023-03-29T16:07:11.216Z,4.40
2023-03-29T16:09:39.863Z,4.90
2023-03-29T16:12:10.480Z,5.10
2023-03-29T16:17:21.566Z,6.90
2023-03-29T16:19:54.855Z,5.70
2023-03-29T16:22:25.130Z,5.70
2023-03-29T16:24:56.236Z,12.70
2023-03-29T16:27:24.206Z,8.00
2023-03-29T16:29:52.294Z,7.60
2023-03-29T16:32:22.072Z,11.80
2023-03-29T16:34:50.718Z,13.40
2023-03-29T16:37:18.701Z,8.60
2023-03-29T16:39:46.790Z,9.30
2023-03-29T16:42:14.747Z,6.70
2023-03-29T16:44:44.554Z,5.60
2023-03-29T16:47:12.799Z,6.00
2023-03-29T16:49:41.915Z,5.90
2023-03-29T16:52:11.689Z,6.80
2023-03-29T16:54:39.837Z,4.70
2023-03-29T16:57:07.846Z,6.30
2023-03-29T16:59:36.611Z,6.10
2023-03-29T17:02:04.807Z,5.60
2023-03-29T17:04:32.983Z,7.80
2023-03-29T17:07:01.677Z,5.40
2023-03-29T17:09:30.070Z,5.10
2023-03-29T17:11:58.196Z,5.50
2023-03-29T17:14:26.565Z,13.90
2023-03-29T17:16:54.564Z,8.90
2023-03-29T17:19:22.562Z,12.20
2023-03-29T17:21:50.469Z,9.50
2023-03-29T17:24:20.914Z,10.90
2023-03-29T17:26:48.955Z,7.50
2023-03-29T17:29:17.074Z,13.30
2023-03-29T17:31:48.024Z,11.80
2023-03-29T17:34:17.445Z,5.90
2023-03-29T17:36:48.885Z,3.90
2023-03-29T17:41:47.115Z,6.50
2023-03-29T17:44:18.184Z,8.10
2023-03-29T17:46:46.770Z,9.10
2023-03-29T17:49:15.081Z,6.80
2023-03-29T17:51:43.640Z,4.90
2023-03-29T17:54:12.285Z,6.00
2023-03-29T17:56:40.336Z,7.10
2023-03-29T17:59:08.311Z,5.00
2023-03-29T18:01:39.362Z,5.80
2023-03-29T18:04:07.989Z,6.10
2023-03-29T18:06:36.082Z,5.40
2023-03-29T18:09:04.506Z,7.40
2023-03-29T18:11:33.070Z,8.40
2023-03-29T18:14:01.275Z,9.40
2023-03-29T18:16:34.672Z,7.10
2023-03-29T18:19:04.033Z,6.20
2023-03-29T18:21:31.999Z,4.40
2023-03-29T18:24:00.738Z,5.30
2023-03-29T18:26:33.535Z,5.00
2023-03-29T18:29:02.330Z,6.40
2023-03-29T18:31:30.749Z,5.90
2023-03-29T18:33:59.073Z,4.10
2023-03-29T18:36:30.424Z,6.90
2023-03-29T18:39:05.591Z,4.90
2023-03-29T18:41:40.362Z,5.70
2023-03-29T18:44:10.703Z,4.80
2023-03-29T18:46:38.691Z,6.00
2023-03-29T18:49:08.393Z,4.60
2023-03-29T18:51:36.332Z,4.20
2023-03-29T18:54:04.718Z,5.10
2023-03-29T18:56:33.363Z,5.00
2023-03-29T18:59:06.438Z,5.90
2023-03-29T19:01:35.396Z,4.80
2023-03-29T19:04:03.431Z,4.60
2023-03-29T19:06:31.860Z,6.10
2023-03-29T19:09:02.325Z,6.10
2023-03-29T19:11:30.606Z,7.70
2023-03-29T19:13:58.535Z,4.30
2023-03-29T19:16:27.656Z,4.10
2023-03-29T19:18:56.214Z,7.10
2023-03-29T19:21:29.061Z,8.40
2023-03-29T19:23:57.308Z,6.50
2023-03-29T19:26:25.365Z,4.80
2023-03-29T19:28:53.621Z,6.40
2023-03-29T19:31:22.642Z,6.00
2023-03-29T19:33:51.020Z,4.70
2023-03-29T19:36:18.930Z,6.50
2023-03-29T19:38:46.896Z,6.00
2023-03-29T19:41:14.934Z,5.40
2023-03-29T19:43:43.518Z,4.60
2023-03-29T19:46:12.150Z,5.70
2023-03-29T19:48:40.554Z,6.10
2023-03-29T19:51:31.485Z,5.60
2023-03-29T19:53:59.669Z,7.60
2023-03-29T19:56:29.596Z,6.40
2023-03-29T19:58:57.572Z,6.70
2023-03-29T20:01:27.246Z,7.90
2023-03-29T20:03:56.437Z,6.80
2023-03-29T20:06:24.615Z,6.70
2023-03-29T20:08:53.118Z,6.50
2023-03-29T20:11:24.195Z,7.40
2023-03-29T20:13:52.965Z,7.40
2023-03-29T20:16:25.840Z,7.00
2023-03-29T20:18:56.396Z,7.40
2023-03-29T20:23:58.018Z,9.40
2023-03-29T20:26:28.214Z,8.40
2023-03-29T20:28:56.530Z,7.50
2023-03-29T20:31:24.729Z,9.20
2023-03-29T20:33:53.642Z,6.50
2023-03-29T20:36:23.320Z,6.00
2023-03-29T20:38:51.482Z,5.90
2023-03-29T20:41:23.015Z,5.40
2023-03-29T20:43:58.343Z,5.80
2023-03-29T20:46:33.361Z,7.20
2023-03-29T20:49:51.275Z,6.50
2023-03-29T20:56:10.880Z,5.30
2023-03-29T20:58:48.481Z,5.50
2023-03-29T21:04:25.177Z,5.90
2023-03-29T21:07:01.667Z,6.40
2023-03-29T21:09:37.889Z,4.60
2023-03-29T21:12:07.702Z,5.40
2023-03-29T21:14:37.800Z,5.40
2023-03-29T21:17:05.917Z,7.60
2023-03-29T21:19:35.882Z,8.20
2023-03-29T21:22:03.845Z,10.00
2023-03-29T21:24:37.534Z,8.70
2023-03-29T21:29:37.915Z,7.80
2023-03-29T21:32:06.453Z,7.70
2023-03-29T21:34:34.504Z,8.30
2023-03-29T21:37:08.280Z,7.10
2023-03-29T21:39:51.001Z,8.20
2023-03-29T21:42:18.972Z,7.90
2023-03-29T21:44:47.399Z,7.20
2023-03-29T21:47:15.422Z,6.80
2023-03-29T21:49:43.964Z,6.70
2023-03-29T21:52:14.460Z,5.60
2023-03-29T21:54:53.136Z,5.20
2023-03-29T21:57:24.435Z,5.90
2023-03-29T21:59:52.778Z,5.10
2023-03-29T22:02:21.598Z,5.70
2023-03-29T22:04:49.761Z,6.90
2023-03-29T22:07:17.906Z,5.80
2023-03-29T22:09:47.557Z,5.70
2023-03-29T22:12:18.500Z,5.90
2023-03-29T22:14:46.560Z,6.20
2023-03-29T22:17:16.368Z,6.80
2023-03-29T22:19:44.443Z,5.50
2023-03-29T22:22:16.507Z,5.70
2023-03-29T22:24:44.765Z,5.90
2023-03-29T22:27:17.062Z,5.80
2023-03-29T22:29:58.634Z,5.50
2023-03-29T22:32:29.742Z,5.60
2023-03-29T22:34:58.586Z,4.90
2023-03-29T22:37:28.597Z,5.00
2023-03-29T22:39:56.741Z,5.10
2023-03-29T22:42:24.727Z,4.40
2023-03-29T22:44:52.640Z,4.80
2023-03-29T22:47:20.641Z,4.80
2023-03-29T22:49:48.629Z,4.80
2023-03-29T22:52:16.552Z,4.90
2023-03-29T22:54:44.889Z,4.70
2023-03-29T22:57:12.863Z,4.80
2023-03-29T22:59:41.278Z,5.10
2023-03-29T23:02:09.386Z,5.10
2023-03-29T23:04:38.932Z,4.30
2023-03-29T23:07:07.360Z,4.50
2023-03-29T23:09:35.412Z,4.50
2023-03-29T23:12:03.773Z,4.70
2023-03-29T23:14:32.029Z,4.60
2023-03-29T23:17:00.303Z,4.50
2023-03-29T23:19:30.294Z,4.60
2023-03-29T23:21:58.992Z,5.40
2023-03-29T23:24:30.454Z,5.60
2023-03-29T23:26:58.455Z,5.50
2023-03-29T23:29:26.449Z,6.40
2023-03-29T23:31:57.372Z,4.70
2023-03-29T23:34:25.327Z,5.70
2023-03-29T23:36:53.406Z,5.80
2023-03-29T23:39:21.492Z,4.70
2023-03-29T23:41:49.753Z,5.50
2023-03-29T23:44:19.004Z,4.50
2023-03-29T23:46:47.655Z,3.60
2023-03-29T23:49:20.169Z,3.90
2023-03-29T23:51:48.347Z,4.40
2023-03-29T23:54:17.303Z,5.50
2023-03-29T23:56:46.881Z,5.10
2023-03-29T23:59:14.932Z,4.50
